Time;durP1;ratioP1;P1;durP2;ratioP2;P2;SDS_P1;SDS_P2;PMS_P1;PMS_P2;Temp;Humidity;BMP_temperature;BMP_pressure;BME280_temperature;BME280_humidity;BME280_pressure;Samples;Min_cycle;Max_cycle;Signal;HPM_P1;HPM_P2
2022/07/17 00:02:08;;;;;;;5.38;5.18;;;;;;;13.55;75.16;101859.38;6023371;23;20097;-73
2022/07/17 00:04:34;;;;;;;4.47;4.28;;;;;;;13.22;75.82;101814.25;6015376;23;20448;-72
2022/07/17 00:07:01;;;;;;;5.20;4.90;;;;;;;13.48;75.09;101838.63;6031738;23;20011;-73
2022/07/17 00:09:27;;;;;;;4.60;4.40;;;;;;;13.51;76.48;101865.72;6018434;23;20033;-72
2022/07/17 00:11:54;;;;;;;4.70;4.50;;;;;;;13.51;76.04;101863.06;6029692;23;20037;-72
2022/07/17 00:14:20;;;;;;;5.82;5.57;;;;;;;13.38;75.73;101859.28;6024057;23;20634;-73
2022/07/17 00:16:46;;;;;;;4.55;4.35;;;;;;;13.44;76.68;101884.53;5998653;23;20011;-72
2022/07/17 00:19:13;;;;;;;5.95;5.65;;;;;;;13.40;76.93;101849.50;6027910;23;20053;-73
2022/07/17 00:21:40;;;;;;;4.80;4.60;;;;;;;13.36;76.45;101821.56;5994021;23;20035;-72
2022/07/17 00:24:07;;;;;;;5.07;4.88;;;;;;;13.27;77.33;101836.00;6033884;23;20233;-70
2022/07/17 00:26:34;;;;;;;4.80;4.60;;;;;;;13.22;77.60;101831.88;6030195;23;20151;-73
2022/07/17 00:29:03;;;;;;;4.60;4.40;;;;;;;13.27;77.92;101911.59;6029153;23;20042;-74
2022/07/17 00:31:29;;;;;;;4.82;4.63;;;;;;;13.22;78.08;101832.72;6003032;23;20421;-72
2022/07/17 00:33:56;;;;;;;4.80;4.60;;;;;;;13.18;78.09;101834.63;6019864;23;20111;-72
2022/07/17 00:36:23;;;;;;;5.20;5.00;;;;;;;13.00;78.52;101843.34;5992314;23;20319;-71
2022/07/17 00:38:49;;;;;;;5.38;5.07;;;;;;;13.11;79.96;101835.84;6029690;23;20042;-74
2022/07/17 00:41:16;;;;;;;6.07;5.78;;;;;;;12.87;79.70;101800.91;6021893;23;20055;-72
2022/07/17 00:43:42;;;;;;;4.82;4.63;;;;;;;13.05;80.37;101837.88;6028888;23;20067;-74
2022/07/17 00:46:09;;;;;;;5.15;4.95;;;;;;;12.87;79.73;101818.47;6026332;23;20574;-72
2022/07/17 00:48:35;;;;;;;4.68;4.47;;;;;;;13.00;80.74;101819.66;6020658;23;20054;-72
2022/07/17 00:51:01;;;;;;;4.50;4.30;;;;;;;12.97;81.08;101814.53;6007312;23;20034;-73
2022/07/17 00:53:32;;;;;;;4.70;4.50;;;;;;;12.79;81.30;101866.25;6015827;23;20086;-73
2022/07/17 00:56:01;;;;;;;4.90;4.70;;;;;;;12.87;81.38;101829.88;6030396;23;20620;-71
2022/07/17 00:58:29;;;;;;;4.55;4.35;;;;;;;12.92;81.15;101821.75;6023607;23;20497;-71
2022/07/17 01:00:56;;;;;;;4.70;4.50;;;;;;;12.90;81.05;101845.53;6027163;23;20050;-74
2022/07/17 01:03:24;;;;;;;5.43;5.22;;;;;;;12.70;81.34;101822.69;6019452;23;20195;-73
2022/07/17 01:05:52;;;;;;;4.70;4.50;;;;;;;12.85;81.62;101863.34;6023901;23;20591;-73
2022/07/17 01:08:18;;;;;;;6.00;5.70;;;;;;;12.77;81.71;101820.66;6019173;23;20026;-74
2022/07/17 01:10:45;;;;;;;4.75;4.55;;;;;;;12.64;82.33;101812.41;6028326;23;20381;-73
2022/07/17 01:13:11;;;;;;;5.85;5.60;;;;;;;12.72;82.58;101834.00;6040016;23;20460;-74
2022/07/17 01:15:40;;;;;;;4.63;4.43;;;;;;;12.71;82.45;101892.06;6033367;23;20095;-73
2022/07/17 01:18:08;;;;;;;4.68;4.47;;;;;;;11.56;82.64;101660.78;6030926;23;20002;-72
2022/07/17 01:20:36;;;;;;;4.55;4.35;;;;;;;12.36;82.92;101797.78;6023706;23;20026;-72
2022/07/17 01:23:03;;;;;;;4.80;4.60;;;;;;;12.60;83.07;101860.03;6026424;23;20038;-78
2022/07/17 01:25:31;;;;;;;4.50;4.30;;;;;;;12.56;82.90;101838.22;6030850;23;20034;-71
2022/07/17 01:27:58;;;;;;;4.75;4.55;;;;;;;12.29;82.55;101800.78;6017456;23;20335;-72
2022/07/17 01:30:25;;;;;;;4.82;4.63;;;;;;;12.35;83.15;101827.69;6029423;23;20042;-71
2022/07/17 01:32:51;;;;;;;4.70;4.50;;;;;;;12.47;83.78;101833.34;6021103;23;20023;-73
2022/07/17 01:35:18;;;;;;;5.78;5.53;;;;;;;12.36;83.74;101805.69;5990787;23;20047;-73
2022/07/17 01:37:45;;;;;;;4.80;4.60;;;;;;;12.41;84.57;101823.94;6027708;23;20011;-73
2022/07/17 01:40:15;;;;;;;5.35;5.15;;;;;;;12.20;84.24;101803.78;6021192;23;20087;-72
2022/07/17 01:42:43;;;;;;;4.85;4.53;;;;;;;11.98;84.62;101742.34;6017430;23;20064;-71
2022/07/17 01:45:10;;;;;;;5.97;5.68;;;;;;;12.29;85.13;101824.47;6032260;23;20023;-73
2022/07/17 01:47:37;;;;;;;4.60;4.40;;;;;;;12.14;85.71;101797.81;6020847;23;20047;-73
2022/07/17 01:50:04;;;;;;;5.00;4.80;;;;;;;12.21;85.86;101848.47;6034021;23;20019;-75
2022/07/17 01:52:34;;;;;;;4.60;4.40;;;;;;;12.17;85.98;101858.25;6012502;23;20089;-71
2022/07/17 01:55:01;;;;;;;4.75;4.55;;;;;;;11.77;86.19;101762.47;6005638;23;20054;-73
2022/07/17 01:57:27;;;;;;;4.53;4.32;;;;;;;11.92;86.66;101795.22;6017801;23;20027;-74
2022/07/17 01:59:53;;;;;;;4.75;4.55;;;;;;;12.08;87.08;101826.19;6022404;23;20030;-71
2022/07/17 02:02:20;;;;;;;6.10;5.80;;;;;;;11.78;86.89;101792.25;6023158;23;20027;-70
2022/07/17 02:04:46;;;;;;;4.65;4.45;;;;;;;11.83;87.52;101794.72;6002347;23;20030;-73
2022/07/17 02:07:13;;;;;;;4.80;4.60;;;;;;;11.97;88.85;101835.38;6028182;23;20031;-72
2022/07/17 02:09:39;;;;;;;4.68;4.47;;;;;;;11.88;89.58;101875.13;6023892;23;20022;-73
2022/07/17 02:12:06;;;;;;;4.60;4.40;;;;;;;11.70;89.37;101783.81;6002451;23;20038;-67
2022/07/17 02:14:34;;;;;;;4.50;4.30;;;;;;;11.92;89.55;101821.53;6025953;23;20015;-67
2022/07/17 02:17:01;;;;;;;4.80;4.60;;;;;;;11.86;89.73;101807.72;6030348;23;20085;-70
2022/07/17 02:19:27;;;;;;;5.00;4.80;;;;;;;11.82;89.73;101979.72;6027302;23;20298;-67
2022/07/17 02:21:54;;;;;;;4.80;4.60;;;;;;;11.45;90.14;101774.25;6011317;23;20014;-69
2022/07/17 02:24:20;;;;;;;6.22;5.93;;;;;;;11.64;90.51;101802.47;6041755;23;20109;-66
2022/07/17 02:26:47;;;;;;;4.57;4.38;;;;;;;11.72;90.97;101848.56;6027389;23;20409;-71
2022/07/17 02:29:14;;;;;;;6.18;5.88;;;;;;;11.71;90.22;101852.13;6020726;23;20023;-69
2022/07/17 02:31:40;;;;;;;4.53;4.32;;;;;;;11.55;90.32;101827.34;6024763;23;20029;-69
2022/07/17 02:34:07;;;;;;;4.63;4.43;;;;;;;11.67;89.81;101916.28;6046212;23;20080;-69
2022/07/17 02:36:33;;;;;;;4.40;4.20;;;;;;;11.43;90.43;101841.81;6003700;23;20177;-69
2022/07/17 02:39:01;;;;;;;4.30;4.10;;;;;;;11.53;91.49;101816.03;6032047;23;20030;-69
2022/07/17 02:41:27;;;;;;;4.60;4.40;;;;;;;11.33;91.64;101806.28;6028347;23;20333;-67
2022/07/17 02:43:54;;;;;;;4.50;4.30;;;;;;;11.53;91.66;101837.91;6028814;23;20029;-67
2022/07/17 02:46:21;;;;;;;6.40;6.10;;;;;;;11.28;92.12;101792.44;6025682;23;20074;-68
2022/07/17 02:48:47;;;;;;;4.43;4.22;;;;;;;11.41;92.08;101848.88;6030924;23;20313;-67
2022/07/17 02:51:13;;;;;;;5.72;5.53;;;;;;;11.36;92.47;101850.81;6024318;23;20031;-67
2022/07/17 02:53:40;;;;;;;4.47;4.28;;;;;;;11.38;92.55;101886.66;6024384;23;20017;-67
2022/07/17 02:56:06;;;;;;;4.70;4.50;;;;;;;11.11;92.91;101788.66;6029496;23;20242;-67
2022/07/17 02:58:33;;;;;;;4.68;4.47;;;;;;;11.41;92.62;101848.03;6026618;23;20027;-66
2022/07/17 03:01:01;;;;;;;4.40;4.20;;;;;;;11.25;93.14;101919.53;6030791;23;20027;-67
2022/07/17 03:03:28;;;;;;;4.80;4.60;;;;;;;11.34;93.62;101963.88;6017820;23;20042;-67
2022/07/17 03:05:55;;;;;;;4.50;4.30;;;;;;;11.31;94.18;102013.94;6021955;23;20532;-67
2022/07/17 03:08:21;;;;;;;5.65;5.45;;;;;;;11.21;94.74;101940.75;6028805;23;20038;-67
2022/07/17 03:10:48;;;;;;;4.50;4.30;;;;;;;10.96;95.16;101889.03;6023256;23;20085;-67
2022/07/17 03:13:14;;;;;;;6.07;5.78;;;;;;;11.06;95.61;101986.78;6025666;23;20345;-66
2022/07/17 03:15:41;;;;;;;4.40;4.20;;;;;;;10.80;95.06;101898.34;6025213;23;20018;-67
2022/07/17 03:18:08;;;;;;;5.28;5.07;;;;;;;10.96;95.82;101912.66;6030148;23;20018;-67
2022/07/17 03:20:34;;;;;;;4.70;4.50;;;;;;;11.08;95.82;101940.28;6017577;23;20195;-68
2022/07/17 03:23:00;;;;;;;4.63;4.43;;;;;;;10.88;96.74;101933.09;5995423;23;20031;-67
2022/07/17 03:25:27;;;;;;;4.72;4.53;;;;;;;10.96;97.73;102007.22;6032300;23;20064;-67
2022/07/17 03:27:54;;;;;;;4.50;4.30;;;;;;;10.97;98.19;101938.88;6046401;23;20587;-67
2022/07/17 03:30:20;;;;;;;5.90;5.60;;;;;;;10.94;98.40;102037.94;6021319;23;20297;-67
2022/07/17 03:32:46;;;;;;;4.30;4.10;;;;;;;10.86;97.71;101987.44;6025333;23;20258;-67
2022/07/17 03:35:13;;;;;;;5.55;5.35;;;;;;;10.68;96.54;101923.25;6026987;23;20480;-68
2022/07/17 03:37:40;;;;;;;4.40;4.20;;;;;;;10.80;97.39;101956.13;6028699;23;20023;-71
2022/07/17 03:40:07;;;;;;;4.75;4.55;;;;;;;10.81;98.50;102023.50;6041701;23;20425;-74
2022/07/17 03:42:34;;;;;;;4.40;4.20;;;;;;;10.51;99.83;101901.03;6010398;23;20535;-71
2022/07/17 03:45:00;;;;;;;4.47;4.28;;;;;;;10.77;100.00;101946.59;6027400;23;20099;-72
2022/07/17 03:47:27;;;;;;;4.28;4.07;;;;;;;10.70;100.00;101942.44;6029627;23;20027;-72
2022/07/17 03:49:53;;;;;;;4.32;4.13;;;;;;;10.91;100.00;101978.50;6009530;23;20023;-71
2022/07/17 03:52:20;;;;;;;7.38;7.03;;;;;;;10.96;100.00;101971.34;6029448;23;20036;-71
2022/07/17 03:54:46;;;;;;;4.70;4.50;;;;;;;10.87;100.00;101960.28;6031590;23;20071;-68
2022/07/17 03:57:13;;;;;;;5.85;5.60;;;;;;;11.04;99.72;101984.19;6022109;23;20027;-69
2022/07/17 03:59:39;;;;;;;4.45;4.25;;;;;;;11.12;98.82;101973.44;6028077;23;20023;-67
2022/07/17 04:02:05;;;;;;;4.50;4.30;;;;;;;11.14;98.57;101980.34;6024797;23;20043;-67
2022/07/17 04:04:32;;;;;;;4.32;4.13;;;;;;;11.18;98.26;101983.72;6027973;23;20187;-67
2022/07/17 04:06:58;;;;;;;4.35;4.15;;;;;;;11.24;98.32;101978.25;5998308;23;20496;-67
2022/07/17 04:09:25;;;;;;;4.63;4.43;;;;;;;11.31;98.06;101974.53;5992049;23;20067;-68
2022/07/17 04:11:51;;;;;;;4.57;4.38;;;;;;;11.16;97.29;101960.16;6001372;23;20015;-66
2022/07/17 04:14:17;;;;;;;5.93;5.63;;;;;;;11.46;97.05;101996.78;6022842;23;20031;-69
2022/07/17 04:16:44;;;;;;;4.53;4.32;;;;;;;11.73;96.62;102015.97;5996203;23;20180;-67
2022/07/17 04:19:11;;;;;;;5.53;5.32;;;;;;;12.24;94.38;102040.44;6017003;23;20035;-67
2022/07/17 04:21:37;;;;;;;4.50;4.30;;;;;;;12.78;91.15;102062.94;5962959;23;20022;-67
2022/07/17 04:24:04;;;;;;;4.50;4.30;;;;;;;12.58;85.89;101931.19;6009262;23;20043;-66
2022/07/17 04:26:30;;;;;;;4.68;4.47;;;;;;;14.28;81.77;102098.88;6000613;23;20015;-71
2022/07/17 04:28:59;;;;;;;4.68;4.47;;;;;;;14.82;77.00;102065.53;6000575;23;20070;-71
2022/07/17 04:31:25;;;;;;;5.20;5.00;;;;;;;15.51;73.87;102103.59;5993893;23;20037;-68
2022/07/17 04:33:54;;;;;;;4.85;4.65;;;;;;;15.78;71.36;102108.47;5995802;23;20035;-67
2022/07/17 04:36:20;;;;;;;6.15;5.85;;;;;;;15.72;70.13;102038.13;5968489;23;20063;-67
2022/07/17 04:38:47;;;;;;;4.85;4.60;;;;;;;16.41;68.23;102115.72;6002473;23;20384;-70
2022/07/17 04:41:13;;;;;;;6.25;5.95;;;;;;;16.81;67.38;102126.78;6023220;23;20034;-67
2022/07/17 04:43:40;;;;;;;4.78;4.57;;;;;;;17.31;65.45;102139.00;5989359;23;20027;-70
2022/07/17 04:46:06;;;;;;;5.28;5.05;;;;;;;17.54;63.44;102135.03;5998501;23;20027;-69
2022/07/17 04:48:33;;;;;;;5.22;5.03;;;;;;;17.71;62.72;102140.19;5998425;23;20078;-69
2022/07/17 04:50:59;;;;;;;5.30;5.10;;;;;;;17.65;62.06;102115.81;6000998;23;20015;-68
2022/07/17 04:53:26;;;;;;;5.43;5.13;;;;;;;17.53;62.26;102094.34;5994441;23;20105;-68
2022/07/17 04:55:52;;;;;;;5.03;4.82;;;;;;;17.91;61.99;102139.03;5999393;23;20027;-69
2022/07/17 04:58:19;;;;;;;6.47;6.18;;;;;;;17.89;61.86;102121.47;5992864;23;20468;-68
2022/07/17 05:00:46;;;;;;;5.07;4.88;;;;;;;17.99;62.01;102127.09;5999557;23;20396;-69
2022/07/17 05:03:13;;;;;;;6.47;6.18;;;;;;;18.49;61.06;102142.56;5994120;23;20586;-67
2022/07/17 05:05:40;;;;;;;5.03;4.82;;;;;;;18.87;60.25;102146.44;6009894;23;20027;-74
2022/07/17 05:08:06;;;;;;;5.32;5.13;;;;;;;19.42;58.43;102169.44;6022634;23;20058;-67
2022/07/17 05:10:33;;;;;;;5.40;5.20;;;;;;;19.79;57.34;102176.81;6026091;23;20018;-69
2022/07/17 05:12:59;;;;;;;5.40;5.20;;;;;;;20.00;55.75;102169.16;6046118;23;20463;-69
2022/07/17 05:15:26;;;;;;;5.40;5.20;;;;;;;20.07;54.21;102171.31;6022827;23;20347;-68
2022/07/17 05:17:52;;;;;;;5.20;5.00;;;;;;;19.03;56.57;102101.06;6026082;23;20110;-69
2022/07/17 05:20:19;;;;;;;6.82;6.40;;;;;;;19.38;56.54;102127.16;6030550;23;20038;-68
2022/07/17 05:22:45;;;;;;;5.50;5.20;;;;;;;19.35;54.44;102082.13;6005290;23;20373;-69
2022/07/17 05:25:12;;;;;;;6.70;6.40;;;;;;;20.54;54.09;102200.94;6036279;23;20023;-69
2022/07/17 05:27:38;;;;;;;5.38;5.18;;;;;;;20.89;53.22;102198.47;6014112;23;20026;-69
2022/07/17 05:30:05;;;;;;;5.78;5.47;;;;;;;20.36;52.82;102157.75;6025687;23;20094;-68
2022/07/17 05:32:32;;;;;;;5.70;5.40;;;;;;;19.71;54.79;102118.75;6013945;23;20093;-68
2022/07/17 05:34:58;;;;;;;5.57;5.18;;;;;;;20.72;53.67;102191.66;6027098;23;20090;-69
2022/07/17 05:37:25;;;;;;;5.90;5.60;;;;;;;21.45;51.11;102189.13;6021583;23;20075;-68
2022/07/17 05:39:51;;;;;;;5.60;5.40;;;;;;;21.46;50.38;102183.63;6011184;23;20045;-68
2022/07/17 05:42:17;;;;;;;6.32;6.03;;;;;;;21.53;51.24;102194.72;6025185;23;20042;-68
2022/07/17 05:44:44;;;;;;;5.75;5.45;;;;;;;21.50;49.91;102155.72;6033038;23;20145;-68
2022/07/17 05:47:10;;;;;;;6.90;6.60;;;;;;;21.79;50.34;102195.44;6025120;23;20533;-68
2022/07/17 05:49:37;;;;;;;5.38;5.18;;;;;;;22.19;49.74;102216.44;5999695;23;20090;-69
2022/07/17 05:52:04;;;;;;;5.68;5.47;;;;;;;21.44;48.27;102077.88;6032007;23;20085;-68
2022/07/17 05:54:32;;;;;;;5.90;5.50;;;;;;;22.18;47.43;102185.28;5975711;23;20090;-72
2022/07/17 05:56:59;;;;;;;5.63;5.32;;;;;;;22.36;48.34;102193.72;6029434;23;20444;-68
2022/07/17 05:59:31;;;;;;;5.60;5.40;;;;;;;22.33;47.58;102185.97;5999793;23;20483;-68
2022/07/17 06:01:58;;;;;;;5.65;5.35;;;;;;;21.79;48.07;102149.13;6030815;23;20021;-68
2022/07/17 06:04:24;;;;;;;5.82;5.53;;;;;;;21.30;48.98;102116.28;6037648;23;20338;-71
2022/07/17 06:06:51;;;;;;;5.90;5.60;;;;;;;22.43;47.01;102181.59;6025466;23;20038;-68
2022/07/17 06:09:18;;;;;;;6.80;6.50;;;;;;;23.13;45.61;102230.44;6029771;23;20030;-69
2022/07/17 06:11:44;;;;;;;6.03;5.72;;;;;;;22.18;45.31;102048.91;6026032;23;20038;-68
2022/07/17 06:14:11;;;;;;;6.97;6.68;;;;;;;22.87;46.04;102184.34;6026258;23;20025;-66
2022/07/17 06:16:37;;;;;;;5.53;5.28;;;;;;;22.96;45.96;102177.41;6025915;23;20295;-69
2022/07/17 06:19:04;;;;;;;5.72;5.43;;;;;;;22.83;45.87;102148.97;5998584;23;20031;-69
2022/07/17 06:21:30;;;;;;;5.70;5.40;;;;;;;22.50;46.79;102145.34;6004393;23;20346;-69
2022/07/17 06:23:57;;;;;;;5.80;5.50;;;;;;;22.32;46.85;102117.38;6031214;23;20117;-67
2022/07/17 06:26:23;;;;;;;6.55;6.25;;;;;;;22.14;47.87;102108.97;6021511;23;20039;-67
2022/07/17 06:28:50;;;;;;;5.70;5.40;;;;;;;21.27;49.29;102021.25;6036612;23;20111;-67
2022/07/17 06:31:16;;;;;;;8.05;7.60;;;;;;;21.26;50.44;102067.59;6013877;23;20058;-67
2022/07/17 06:33:43;;;;;;;5.88;5.57;;;;;;;21.13;50.84;102077.53;6000167;23;20723;-69
2022/07/17 06:36:09;;;;;;;6.63;6.32;;;;;;;20.52;53.16;102037.50;6014111;23;20236;-69
2022/07/17 06:38:36;;;;;;;6.10;5.80;;;;;;;20.40;53.91;102046.41;6024194;23;20037;-69
2022/07/17 06:41:02;;;;;;;5.78;5.47;;;;;;;20.24;54.62;102025.31;6025350;23;20027;-71
2022/07/17 06:43:29;;;;;;;5.60;5.30;;;;;;;20.36;53.86;102044.91;6024056;23;20055;-69
2022/07/17 06:45:55;;;;;;;5.90;5.60;;;;;;;20.39;53.54;102036.72;6030793;23;20090;-67
2022/07/17 06:48:23;;;;;;;6.78;6.47;;;;;;;20.27;52.89;102025.13;6023680;23;20104;-67
2022/07/17 06:50:49;;;;;;;5.80;5.50;;;;;;;20.36;53.02;102036.91;6026962;23;20537;-67
2022/07/17 06:53:16;;;;;;;7.40;7.10;;;;;;;20.52;52.87;102051.69;5991588;23;20567;-67
2022/07/17 06:55:42;;;;;;;5.50;5.20;;;;;;;20.19;52.99;102033.66;6028560;23;20100;-71
2022/07/17 06:58:09;;;;;;;6.32;6.05;;;;;;;19.83;53.00;101971.38;6012057;23;20033;-67
2022/07/17 07:00:35;;;;;;;5.57;5.38;;;;;;;19.55;53.06;101953.78;6019287;23;20565;-68
2022/07/17 07:03:02;;;;;;;6.00;5.70;;;;;;;19.54;53.92;101957.41;6013514;23;20074;-67
2022/07/17 07:05:28;;;;;;;5.50;5.30;;;;;;;20.11;53.86;102052.03;6011088;23;20460;-67
2022/07/17 07:07:55;;;;;;;9.07;5.80;;;;;;;20.39;52.71;102072.22;6025168;23;20496;-68
2022/07/17 07:10:21;;;;;;;7.35;7.05;;;;;;;20.44;52.23;102063.88;6027274;23;20304;-67
2022/07/17 07:12:48;;;;;;;5.40;5.20;;;;;;;20.56;50.64;102073.66;6027864;23;20125;-67
2022/07/17 07:15:14;;;;;;;6.97;6.68;;;;;;;20.31;49.60;102034.59;6025006;23;20021;-71
2022/07/17 07:17:41;;;;;;;5.63;5.40;;;;;;;20.17;50.74;102032.91;6028561;23;20210;-69
2022/07/17 07:20:08;;;;;;;5.97;5.68;;;;;;;19.92;50.13;102018.69;6020620;23;20263;-67
2022/07/17 07:22:36;;;;;;;5.80;5.50;;;;;;;20.03;50.51;102030.41;5993208;23;20019;-67
2022/07/17 07:25:04;;;;;;;5.50;5.20;;;;;;;19.91;49.78;102026.78;6029259;23;20042;-67
2022/07/17 07:27:30;;;;;;;5.80;5.50;;;;;;;20.24;51.13;102058.16;5984605;23;20103;-68
2022/07/17 07:29:57;;;;;;;5.70;5.40;;;;;;;20.51;51.22;102071.31;6026152;23;20022;-67
2022/07/17 07:32:23;;;;;;;7.80;7.40;;;;;;;20.67;50.91;102072.91;6014812;23;20632;-70
2022/07/17 07:34:49;;;;;;;5.32;5.13;;;;;;;20.22;50.86;102012.09;5994613;23;20626;-69
2022/07/17 07:37:16;;;;;;;7.53;7.13;;;;;;;20.48;50.90;102052.88;6026826;23;20031;-69
2022/07/17 07:39:43;;;;;;;5.50;5.30;;;;;;;20.50;50.90;102061.59;6023202;23;20514;-67
2022/07/17 07:42:11;;;;;;;6.95;6.65;;;;;;;20.59;50.58;102060.13;5995832;23;20250;-67
2022/07/17 07:44:37;;;;;;;5.43;5.13;;;;;;;20.89;50.25;102080.19;6017764;23;20081;-68
2022/07/17 07:47:04;;;;;;;5.40;5.20;;;;;;;20.08;49.45;101951.78;6026770;23;20424;-70
2022/07/17 07:49:30;;;;;;;6.03;5.72;;;;;;;20.93;49.54;102076.34;6008395;23;20019;-72
2022/07/17 07:52:05;;;;;;;5.70;5.40;;;;;;;20.22;47.78;101940.13;6025644;23;20038;-67
2022/07/17 07:54:32;;;;;;;5.95;5.65;;;;;;;20.62;48.00;102043.91;6018455;23;20211;-68
2022/07/17 07:56:59;;;;;;;5.40;5.20;;;;;;;20.88;48.09;102076.66;5990760;23;20011;-67
2022/07/17 07:59:26;;;;;;;5.70;5.40;;;;;;;20.36;48.26;102002.25;6022781;23;20547;-69
2022/07/17 08:01:53;;;;;;;5.35;5.15;;;;;;;20.85;48.69;102100.06;6021845;23;20003;-69
2022/07/17 08:04:19;;;;;;;5.28;5.07;;;;;;;20.58;46.89;102076.22;6000083;23;20128;-68
2022/07/17 08:06:46;;;;;;;5.38;5.18;;;;;;;20.78;47.63;102096.13;6005867;23;20114;-68
2022/07/17 08:09:12;;;;;;;6.97;6.60;;;;;;;20.84;46.97;102093.84;6026751;23;20022;-71
2022/07/17 08:11:39;;;;;;;5.40;5.20;;;;;;;21.07;46.22;102107.34;6028250;23;20058;-70
2022/07/17 08:14:05;;;;;;;5.30;5.10;;;;;;;21.48;45.56;102138.97;5992520;23;20041;-73
2022/07/17 08:16:38;;;;;;;5.50;5.30;;;;;;;21.50;45.36;102129.00;6029488;23;20102;-70
2022/07/17 08:19:05;;;;;;;5.25;5.05;;;;;;;21.38;44.51;102111.22;6024988;23;20030;-72
2022/07/17 08:21:31;;;;;;;5.18;4.97;;;;;;;21.80;44.16;102138.31;6013922;23;20019;-72
2022/07/17 08:23:58;;;;;;;5.60;5.30;;;;;;;21.86;44.27;102139.69;6031085;23;20054;-67
2022/07/17 08:26:24;;;;;;;6.25;5.95;;;;;;;21.48;44.29;102082.88;6001452;23;20732;-70
2022/07/17 08:28:56;;;;;;;5.30;5.10;;;;;;;21.40;43.70;102068.38;6190523;22;20232;-71
2022/07/17 08:31:23;;;;;;;6.72;6.43;;;;;;;21.99;45.05;102142.25;6134060;23;20088;-72
2022/07/17 08:33:50;;;;;;;5.88;5.50;;;;;;;22.15;44.02;102129.41;6074477;23;20037;-73
2022/07/17 08:36:16;;;;;;;6.45;6.15;;;;;;;21.81;42.70;102070.56;6074870;23;20594;-70
2022/07/17 08:38:43;;;;;;;5.63;5.25;;;;;;;21.81;43.06;102059.88;6076437;23;20016;-71
2022/07/17 08:41:10;;;;;;;5.20;5.00;;;;;;;22.25;42.14;102130.41;6084470;23;20666;-71
2022/07/17 08:43:36;;;;;;;5.55;5.30;;;;;;;22.16;41.78;102109.69;6078843;23;20664;-73
2022/07/17 08:46:12;;;;;;;6.25;5.75;;;;;;;21.81;42.53;102067.88;6076713;23;20032;-71
2022/07/17 08:48:41;;;;;;;5.70;5.40;;;;;;;21.81;42.75;102062.53;6084086;23;20019;-74
2022/07/17 08:51:09;;;;;;;5.65;5.40;;;;;;;21.89;41.68;102060.13;6062636;23;20060;-71
2022/07/17 08:53:37;;;;;;;5.15;4.95;;;;;;;22.24;42.39;102074.34;6071931;23;20505;-73
2022/07/17 08:56:04;;;;;;;5.45;5.22;;;;;;;22.93;41.83;102134.81;6075055;23;20028;-72
2022/07/17 08:58:31;;;;;;;5.25;5.05;;;;;;;23.29;41.56;102150.56;6100347;23;20779;-73
2022/07/17 09:00:57;;;;;;;5.80;5.50;;;;;;;22.87;39.53;102079.94;6084529;23;20038;-72
2022/07/17 09:03:24;;;;;;;6.65;6.25;;;;;;;23.22;39.43;102129.75;6096942;23;20380;-72
2022/07/17 09:05:51;;;;;;;5.50;5.30;;;;;;;22.63;39.74;102043.53;6065388;23;20041;-71
2022/07/17 09:08:20;;;;;;;6.50;6.20;;;;;;;22.46;40.95;102039.53;6097578;23;20036;-72
2022/07/17 09:10:48;;;;;;;5.40;5.20;;;;;;;23.29;39.40;102130.94;6058485;23;20010;-73
2022/07/17 09:13:20;;;;;;;6.53;6.22;;;;;;;23.27;38.79;102124.84;6077868;23;20182;-73
2022/07/17 09:15:50;;;;;;;6.00;5.70;;;;;;;23.56;38.61;102137.66;6082794;23;20018;-72
2022/07/17 09:18:17;;;;;;;6.70;6.40;;;;;;;23.78;38.97;102147.44;6123395;23;20078;-73
2022/07/17 09:20:48;;;;;;;5.30;5.10;;;;;;;23.49;38.74;102105.13;6090768;23;20017;-71
2022/07/17 09:23:17;;;;;;;6.47;6.18;;;;;;;23.64;37.85;102116.41;6138260;23;20039;-72
2022/07/17 09:25:51;;;;;;;5.43;5.22;;;;;;;23.71;37.86;102112.19;6093967;23;20012;-72
2022/07/17 09:28:18;;;;;;;6.47;6.18;;;;;;;23.70;37.67;102124.75;6092337;23;20032;-73
2022/07/17 09:30:53;;;;;;;5.40;5.20;;;;;;;23.33;38.32;102040.44;6103308;23;20056;-73
2022/07/17 09:33:23;;;;;;;6.88;6.28;;;;;;;23.12;38.87;102045.81;6132404;23;20033;-71
2022/07/17 09:35:52;;;;;;;5.40;5.20;;;;;;;23.12;38.14;102075.28;6098272;23;20057;-71
2022/07/17 09:38:30;;;;;;;6.75;6.43;;;;;;;23.37;37.73;102095.47;6130402;23;20126;-72
2022/07/17 09:41:15;;;;;;;5.50;5.30;;;;;;;23.12;38.08;102038.63;6061915;23;20025;-72
2022/07/17 09:43:44;;;;;;;5.65;5.40;;;;;;;23.52;37.87;102087.97;6127195;23;20108;-71
2022/07/17 09:46:15;;;;;;;6.38;6.07;;;;;;;23.05;37.46;102008.84;6090638;23;20084;-71
2022/07/17 09:48:47;;;;;;;5.18;4.97;;;;;;;23.79;38.92;102104.38;6121097;23;20084;-72
2022/07/17 09:51:18;;;;;;;;;;;;;;;23.59;36.74;102065.00;6082405;23;20026;-71
2022/07/17 09:53:49;;;;;;;5.47;5.28;;;;;;;23.85;36.71;102100.31;6059766;23;19913;-71
2022/07/17 09:56:18;;;;;;;6.45;6.15;;;;;;;23.95;36.62;102103.06;6101715;23;20022;-71
2022/07/17 09:58:48;;;;;;;5.50;5.30;;;;;;;24.27;37.52;102117.16;6057858;23;20021;-71
2022/07/17 10:01:18;;;;;;;6.20;5.90;;;;;;;24.50;36.49;102127.75;6117497;23;20110;-71
2022/07/17 10:03:45;;;;;;;5.30;5.10;;;;;;;24.35;35.75;102107.59;6072822;23;20138;-72
2022/07/17 10:06:11;;;;;;;6.10;5.80;;;;;;;24.18;36.16;102091.16;6123905;23;20048;-71
2022/07/17 10:08:38;;;;;;;5.20;5.00;;;;;;;23.61;37.05;102041.59;6093709;23;20065;-71
2022/07/17 10:11:06;;;;;;;5.50;5.30;;;;;;;23.15;37.99;101994.66;6095173;23;20455;-70
2022/07/17 10:13:36;;;;;;;5.78;5.38;;;;;;;23.62;37.98;102051.34;6091815;23;20017;-72
2022/07/17 10:16:03;;;;;;;5.35;5.15;;;;;;;23.70;37.69;102076.50;6113540;23;20356;-71
2022/07/17 10:18:35;;;;;;;5.30;5.10;;;;;;;23.80;36.99;102079.28;6091849;23;20085;-71
2022/07/17 10:21:21;;;;;;;5.20;5.00;;;;;;;23.88;36.51;102084.81;6091852;23;20026;-71
2022/07/17 10:23:50;;;;;;;5.45;5.22;;;;;;;24.18;36.99;102096.53;6081352;23;20804;-71
2022/07/17 10:26:30;;;;;;;6.50;6.20;;;;;;;24.09;35.87;102090.16;6108034;23;20009;-71
2022/07/17 10:28:57;;;;;;;5.40;5.20;;;;;;;24.18;36.32;102091.16;6066398;23;20490;-71
2022/07/17 10:31:29;;;;;;;6.95;6.55;;;;;;;24.10;34.63;102093.69;6090739;23;20008;-71
2022/07/17 10:34:02;;;;;;;5.35;5.15;;;;;;;24.59;35.82;102104.59;6058185;23;20042;-70
2022/07/17 10:36:42;;;;;;;5.50;5.22;;;;;;;24.85;35.48;102116.50;6053076;23;20002;-71
2022/07/17 10:39:17;;;;;;;6.28;6.00;;;;;;;24.88;34.74;102085.88;6120781;23;20025;-72
2022/07/17 10:41:59;;;;;;;5.40;5.20;;;;;;;25.09;34.74;102078.50;6088827;23;20026;-70
2022/07/17 10:44:31;;;;;;;5.30;5.07;;;;;;;24.78;33.66;102059.00;6111480;23;20017;-71
2022/07/17 10:46:58;;;;;;;5.63;5.35;;;;;;;25.19;34.45;102096.47;6092383;23;20036;-71
2022/07/17 10:49:26;;;;;;;6.38;6.07;;;;;;;25.73;34.35;102131.81;6111741;23;20668;-71
2022/07/17 10:51:53;;;;;;;5.65;5.45;;;;;;;26.09;35.16;102140.09;6073716;23;20309;-71
2022/07/17 10:54:20;;;;;;;6.38;6.07;;;;;;;25.56;33.59;102071.53;6104456;23;20411;-71
2022/07/17 10:56:48;;;;;;;5.47;5.20;;;;;;;26.18;32.79;102140.06;6076828;23;20026;-71
2022/07/17 10:59:14;;;;;;;6.50;6.20;;;;;;;25.18;32.03;101993.53;6099788;23;20408;-72
2022/07/17 11:01:41;;;;;;;5.47;5.28;;;;;;;25.67;31.46;102095.56;6078109;23;20024;-72
2022/07/17 11:04:08;;;;;;;5.70;5.43;;;;;;;25.12;32.23;102057.72;6113554;23;20050;-71
2022/07/17 11:06:38;;;;;;;5.90;5.60;;;;;;;25.55;32.59;102077.94;6085790;23;20030;-70
2022/07/17 11:09:08;;;;;;;5.40;5.20;;;;;;;24.94;31.38;101948.31;6120385;23;20323;-72
2022/07/17 11:11:39;;;;;;;5.65;5.38;;;;;;;25.70;32.43;102098.00;6076390;23;20458;-71
2022/07/17 11:14:25;;;;;;;5.28;5.07;;;;;;;25.27;31.38;102069.75;6114069;23;20030;-72
2022/07/17 11:16:59;;;;;;;5.32;5.13;;;;;;;25.20;32.36;102050.66;6080791;23;20053;-71
2022/07/17 11:19:32;;;;;;;6.15;5.85;;;;;;;25.80;29.80;102096.13;6112211;23;20450;-72
2022/07/17 11:22:03;;;;;;;6.40;6.03;;;;;;;25.80;31.09;102098.81;6074336;23;20017;-72
2022/07/17 11:24:46;;;;;;;5.57;5.28;;;;;;;25.48;30.84;102059.69;6078076;23;21624;-72
2022/07/17 11:27:20;;;;;;;6.38;6.07;;;;;;;25.95;30.43;102060.72;6091359;23;20022;-70